createdAt,value
2023-03-01T00:01:22.546Z,102273.06
2023-03-01T00:03:50.460Z,102280.03
2023-03-01T00:06:18.330Z,102285.47
2023-03-01T00:08:46.267Z,102284.16
2023-03-01T00:11:28.734Z,102281.00
2023-03-01T00:13:58.675Z,102285.59
2023-03-01T00:16:29.743Z,102299.66
2023-03-01T00:18:58.232Z,102296.56
2023-03-01T00:21:26.136Z,102290.44
2023-03-01T00:23:54.627Z,102288.78
2023-03-01T00:26:23.768Z,102306.50
2023-03-01T00:28:51.786Z,102295.31
2023-03-01T00:31:21.671Z,102308.66
2023-03-01T00:33:49.761Z,102307.69
2023-03-01T00:36:17.610Z,102301.97
2023-03-01T00:38:46.762Z,102310.25
2023-03-01T00:41:16.842Z,102321.38
2023-03-01T00:43:45.522Z,102319.94
2023-03-01T00:46:21.434Z,102318.69
2023-03-01T00:48:49.498Z,102323.63
2023-03-01T00:51:24.533Z,102323.63
2023-03-01T00:53:54.628Z,102317.84
2023-03-01T00:56:22.668Z,102325.56
2023-03-01T00:58:50.428Z,102319.84
2023-03-01T01:01:21.061Z,102318.78
2023-03-01T01:03:54.716Z,102315.72
2023-03-01T01:06:24.766Z,102317.06
2023-03-01T01:08:54.242Z,102313.59
2023-03-01T01:11:23.186Z,102320.44
2023-03-01T01:13:51.214Z,102319.22
2023-03-01T01:16:20.324Z,102330.94
2023-03-01T01:18:48.605Z,102326.38
2023-03-01T01:21:19.947Z,102331.50
2023-03-01T01:23:48.756Z,102328.59
2023-03-01T01:26:20.202Z,102323.34
2023-03-01T01:28:48.319Z,102338.00
2023-03-01T01:31:16.697Z,102333.88
2023-03-01T01:33:44.388Z,102333.53
2023-03-01T01:36:12.946Z,102332.66
2023-03-01T01:38:40.862Z,102331.41
2023-03-01T01:41:08.567Z,102335.88
2023-03-01T01:43:41.977Z,102330.84
2023-03-01T01:46:28.472Z,102330.19
2023-03-01T01:49:01.701Z,102326.50
2023-03-01T01:51:39.592Z,102329.94
2023-03-01T01:54:12.718Z,102326.50
2023-03-01T01:56:45.136Z,102319.69
2023-03-01T01:59:13.717Z,102326.59
2023-03-01T02:01:41.291Z,102329.84
2023-03-01T02:04:08.949Z,102319.63
2023-03-01T02:06:49.207Z,102324.81
2023-03-01T02:09:19.610Z,102326.16
2023-03-01T02:11:48.959Z,102323.44
2023-03-01T02:14:17.650Z,102316.31
2023-03-01T02:16:45.748Z,102310.69
2023-03-01T02:19:25.367Z,102312.59
2023-03-01T02:22:14.742Z,102308.34
2023-03-01T02:24:57.573Z,102308.16
2023-03-01T02:27:30.072Z,102307.59
2023-03-01T02:29:57.893Z,102308.03
2023-03-01T02:32:26.284Z,102304.78
2023-03-01T02:34:56.425Z,102306.81
2023-03-01T02:37:27.378Z,102297.84
2023-03-01T02:40:06.582Z,102307.16
2023-03-01T02:43:06.931Z,102297.75
2023-03-01T02:45:34.490Z,102290.47
2023-03-01T02:48:01.761Z,102277.72
2023-03-01T02:50:29.153Z,102283.13
2023-03-01T02:52:56.442Z,102280.56
2023-03-01T02:55:24.435Z,102279.88
2023-03-01T02:57:51.979Z,102272.19
2023-03-01T03:00:27.933Z,102270.16
2023-03-01T03:02:58.268Z,102262.88
2023-03-01T03:05:31.596Z,102262.91
2023-03-01T03:08:01.293Z,102264.44
2023-03-01T03:10:33.938Z,102261.09
2023-03-01T03:13:08.741Z,102273.28
2023-03-01T03:15:40.116Z,102264.22
2023-03-01T03:18:10.574Z,102259.28
2023-03-01T03:20:40.536Z,102248.44
2023-03-01T03:23:08.560Z,102251.91
2023-03-01T03:25:39.201Z,102252.59
2023-03-01T03:28:11.099Z,102254.16
2023-03-01T03:30:41.359Z,102246.56
2023-03-01T03:33:13.024Z,102243.00
2023-03-01T03:35:49.824Z,102244.97
2023-03-01T03:38:20.229Z,102242.28
2023-03-01T03:40:50.443Z,102242.66
2023-03-01T03:43:23.989Z,102235.75
2023-03-01T03:45:52.899Z,102240.88
2023-03-01T03:48:20.960Z,102241.88
2023-03-01T03:50:51.273Z,102233.50
2023-03-01T03:53:19.565Z,102239.56
2023-03-01T03:55:50.326Z,102238.66
2023-03-01T03:58:20.900Z,102244.34
2023-03-01T04:00:50.892Z,102237.63
2023-03-01T04:03:20.912Z,102240.34
2023-03-01T04:05:49.052Z,102241.09
2023-03-01T04:08:16.764Z,102239.88
2023-03-01T04:10:48.391Z,102239.00
2023-03-01T04:13:20.796Z,102239.09
2023-03-01T04:15:55.271Z,102231.38
2023-03-01T04:18:26.337Z,102227.44
2023-03-01T04:20:56.445Z,102232.19
2023-03-01T04:23:24.290Z,102230.38
2023-03-01T04:25:58.034Z,102229.38
2023-03-01T04:28:28.518Z,102225.69
2023-03-01T04:30:57.664Z,102229.94
2023-03-01T04:33:26.777Z,102224.78
2023-03-01T04:35:54.289Z,102220.53
2023-03-01T04:38:22.456Z,102223.78
2023-03-01T04:40:50.088Z,102224.34
2023-03-01T04:43:18.767Z,102216.44
2023-03-01T04:45:46.229Z,102225.56
2023-03-01T04:48:13.701Z,102219.09
2023-03-01T04:50:41.121Z,102224.09
2023-03-01T04:53:08.650Z,102217.19
2023-03-01T04:55:36.070Z,102222.44
2023-03-01T04:58:03.400Z,102218.06
2023-03-01T05:00:30.650Z,102212.94
2023-03-01T05:03:01.439Z,102210.03
2023-03-01T05:05:32.368Z,102217.75
2023-03-01T05:08:03.659Z,102210.25
2023-03-01T05:10:33.158Z,102208.16
2023-03-01T05:13:00.789Z,102206.03
2023-03-01T05:15:29.958Z,102217.75
2023-03-01T05:18:01.787Z,102210.50
2023-03-01T05:20:31.599Z,102213.19
2023-03-01T05:23:00.832Z,102213.97
2023-03-01T05:25:34.174Z,102215.09
2023-03-01T05:28:05.409Z,102218.84
2023-03-01T05:30:35.419Z,102225.13
2023-03-01T05:33:03.144Z,102221.56
2023-03-01T05:35:33.722Z,102206.78
2023-03-01T05:38:01.334Z,102221.00
2023-03-01T05:40:30.292Z,102217.84
2023-03-01T05:42:58.251Z,102209.47
2023-03-01T05:45:27.614Z,102208.59
2023-03-01T05:47:56.151Z,102209.13
2023-03-01T05:50:33.097Z,102214.59
2023-03-01T05:53:10.470Z,102210.03
2023-03-01T05:55:38.252Z,102206.88
2023-03-01T05:58:10.263Z,102210.22
2023-03-01T06:00:38.061Z,102209.56
2023-03-01T06:03:05.592Z,102204.22
2023-03-01T06:05:33.385Z,102196.09
2023-03-01T06:08:02.136Z,102196.75
2023-03-01T06:10:30.091Z,102202.53
2023-03-01T06:12:58.168Z,102202.00
2023-03-01T06:15:26.632Z,102191.47
2023-03-01T06:17:58.776Z,102202.13
2023-03-01T06:20:29.037Z,102200.06
2023-03-01T06:22:57.153Z,102191.94
2023-03-01T06:25:26.870Z,102191.94
2023-03-01T06:27:54.688Z,102205.16
2023-03-01T06:30:24.057Z,102195.94
2023-03-01T06:32:51.694Z,102199.06
2023-03-01T06:35:20.085Z,102203.09
2023-03-01T06:37:48.938Z,102196.47
2023-03-01T06:40:17.317Z,102193.72
2023-03-01T06:42:52.489Z,102192.91
2023-03-01T06:45:21.947Z,102199.03
2023-03-01T06:47:49.964Z,102190.31
2023-03-01T06:50:18.608Z,102194.13
2023-03-01T06:55:14.401Z,102194.91
2023-03-01T06:57:41.993Z,102205.16
2023-03-01T07:00:10.167Z,102199.34
2023-03-01T07:02:37.738Z,102199.25
2023-03-01T07:05:05.706Z,102199.66
2023-03-01T07:07:33.225Z,102212.06
2023-03-01T07:10:02.947Z,102201.31
2023-03-01T07:12:32.855Z,102212.31
2023-03-01T07:15:00.170Z,102200.28
2023-03-01T07:17:27.562Z,102208.38
2023-03-01T07:19:55.072Z,102206.69
2023-03-01T07:22:22.482Z,102207.72
2023-03-01T07:24:50.064Z,102212.25
2023-03-01T07:27:17.302Z,102221.88
2023-03-01T07:29:44.529Z,102213.50
2023-03-01T07:32:13.300Z,102212.00
2023-03-01T07:34:41.488Z,102209.19
2023-03-01T07:37:09.067Z,102213.75
2023-03-01T07:39:36.465Z,102207.72
2023-03-01T07:42:03.725Z,102217.03
2023-03-01T07:44:31.002Z,102210.59
2023-03-01T07:46:59.191Z,102211.09
2023-03-01T07:49:27.584Z,102205.09
2023-03-01T07:51:55.195Z,102219.75
2023-03-01T07:54:22.957Z,102213.03
2023-03-01T07:56:50.396Z,102215.19
2023-03-01T07:59:17.728Z,102213.16
2023-03-01T08:01:45.090Z,102206.97
2023-03-01T08:04:12.565Z,102198.22
2023-03-01T08:06:39.791Z,102206.38
2023-03-01T08:09:07.734Z,102198.41
2023-03-01T08:11:35.147Z,102199.91
2023-03-01T08:14:02.869Z,102205.81
2023-03-01T08:16:30.709Z,102205.06
2023-03-01T08:19:01.776Z,102195.25
2023-03-01T08:21:29.240Z,102195.38
2023-03-01T08:23:56.535Z,102194.47
2023-03-01T08:26:23.810Z,102193.41
2023-03-01T08:28:51.489Z,102191.13
2023-03-01T08:31:23.299Z,102180.41
2023-03-01T08:33:56.410Z,102188.13
2023-03-01T08:36:26.721Z,102191.44
2023-03-01T08:38:54.758Z,102191.28
2023-03-01T08:41:22.729Z,102194.16
2023-03-01T08:43:50.474Z,102188.03
2023-03-01T08:46:18.071Z,102182.03
2023-03-01T08:48:45.592Z,102183.66
2023-03-01T08:51:16.366Z,102178.31
2023-03-01T08:53:44.375Z,102176.78
2023-03-01T08:56:12.379Z,102177.50
2023-03-01T08:58:43.719Z,102176.66
2023-03-01T09:01:12.785Z,102174.81
2023-03-01T09:03:40.961Z,102172.41
2023-03-01T09:06:09.004Z,102178.31
2023-03-01T09:08:41.579Z,102178.88
2023-03-01T09:11:12.901Z,102184.53
2023-03-01T09:13:44.115Z,102174.75
2023-03-01T09:16:14.394Z,102178.47
2023-03-01T09:18:42.113Z,102170.69
2023-03-01T09:21:16.207Z,102176.91
2023-03-01T09:23:46.516Z,102165.91
2023-03-01T09:26:23.159Z,102172.03
2023-03-01T09:28:53.331Z,102171.81
2023-03-01T09:31:22.907Z,102174.47
2023-03-01T09:33:52.642Z,102170.44
2023-03-01T09:36:23.009Z,102169.13
2023-03-01T09:38:50.769Z,102174.06
2023-03-01T09:41:48.568Z,102166.13
2023-03-01T09:44:20.330Z,102156.94
2023-03-01T09:46:48.497Z,102159.91
2023-03-01T09:49:22.144Z,102151.72
2023-03-01T09:51:57.357Z,102156.78
2023-03-01T09:54:25.356Z,102159.81
2023-03-01T09:57:29.692Z,102161.97
2023-03-01T10:00:23.590Z,102151.41
2023-03-01T10:03:00.985Z,102147.69
2023-03-01T10:05:31.078Z,102158.25
2023-03-01T10:08:20.388Z,102161.16
2023-03-01T10:10:48.939Z,102160.00
2023-03-01T10:13:38.124Z,102154.72
2023-03-01T10:16:15.050Z,102155.78
2023-03-01T10:18:54.889Z,102151.88
2023-03-01T10:21:22.464Z,102152.00
2023-03-01T10:23:53.906Z,102153.94
2023-03-01T10:26:48.465Z,102150.47
2023-03-01T10:29:16.600Z,102140.56
2023-03-01T10:31:54.214Z,102147.81
2023-03-01T10:34:31.684Z,102139.88
2023-03-01T10:37:10.154Z,102141.13
2023-03-01T10:39:37.972Z,102128.72
2023-03-01T10:42:20.112Z,102133.84
2023-03-01T10:44:50.022Z,102140.13
2023-03-01T10:47:24.425Z,102124.41
2023-03-01T10:49:57.960Z,102123.69
2023-03-01T10:52:33.254Z,102124.53
2023-03-01T10:55:22.332Z,102116.75
2023-03-01T10:57:49.929Z,102110.78
2023-03-01T11:00:28.990Z,102112.94
2023-03-01T11:02:59.435Z,102110.06
2023-03-01T11:05:31.136Z,102100.38
2023-03-01T11:08:01.466Z,102100.66
2023-03-01T11:10:32.586Z,102107.13
2023-03-01T11:13:26.364Z,102098.56
2023-03-01T11:16:13.797Z,102096.13
2023-03-01T11:18:47.950Z,102087.81
2023-03-01T11:21:17.832Z,102084.44
2023-03-01T11:23:47.953Z,102082.25
2023-03-01T11:26:18.497Z,102096.88
2023-03-01T11:28:53.344Z,102081.22
2023-03-01T11:31:21.741Z,102081.72
2023-03-01T11:34:01.176Z,102075.09
2023-03-01T11:36:34.554Z,102081.69
2023-03-01T11:39:28.901Z,102076.81
2023-03-01T11:42:21.005Z,102072.72
2023-03-01T11:44:53.773Z,102066.31
2023-03-01T11:47:40.465Z,102064.50
2023-03-01T11:50:32.789Z,102053.66
2023-03-01T11:53:03.490Z,102060.69
2023-03-01T11:56:09.841Z,102046.72
2023-03-01T11:58:58.696Z,102042.91
2023-03-01T12:01:54.305Z,102032.44
2023-03-01T12:05:17.648Z,102042.75
2023-03-01T12:08:02.184Z,102035.94
2023-03-01T12:11:01.083Z,102029.78
2023-03-01T12:14:05.584Z,102019.31
2023-03-01T12:16:42.290Z,102012.41
2023-03-01T12:19:21.653Z,102009.41
2023-03-01T12:22:07.874Z,102006.16
2023-03-01T12:24:53.968Z,102007.81
2023-03-01T12:27:33.656Z,101998.78
2023-03-01T12:30:27.379Z,101997.50
2023-03-01T12:33:30.691Z,101986.44
2023-03-01T12:36:11.607Z,101988.28
2023-03-01T12:38:44.286Z,101986.47
2023-03-01T12:41:42.314Z,101979.91
2023-03-01T12:44:09.685Z,101982.28
2023-03-01T12:46:53.806Z,101965.25
2023-03-01T12:49:31.265Z,101963.34
2023-03-01T12:52:25.670Z,101964.69
2023-03-01T12:54:57.046Z,101968.06
2023-03-01T12:57:38.001Z,101974.50
2023-03-01T13:00:28.182Z,101958.22
2023-03-01T13:03:19.472Z,101966.41
2023-03-01T13:06:05.930Z,101940.47
2023-03-01T13:08:34.236Z,101934.91
2023-03-01T13:11:04.839Z,101929.78
2023-03-01T13:13:32.792Z,101917.22
2023-03-01T13:16:24.033Z,101924.41
2023-03-01T13:19:07.923Z,101905.66
2023-03-01T13:21:35.408Z,101907.19
2023-03-01T13:24:02.892Z,101902.22
2023-03-01T13:26:30.652Z,101898.91
2023-03-01T13:28:59.490Z,101900.88
2023-03-01T13:31:27.020Z,101882.25
2023-03-01T13:33:59.477Z,101883.81
2023-03-01T13:36:30.660Z,101875.75
2023-03-01T13:39:01.674Z,101870.66
2023-03-01T13:41:44.536Z,101869.00
2023-03-01T13:44:30.126Z,101890.22
2023-03-01T13:47:00.156Z,101871.41
2023-03-01T13:49:45.985Z,101871.84
2023-03-01T13:52:47.613Z,101879.03
2023-03-01T13:55:15.073Z,101868.00
2023-03-01T13:57:47.749Z,101865.72
2023-03-01T14:00:36.323Z,101855.03
2023-03-01T14:03:10.547Z,101853.19
2023-03-01T14:05:38.918Z,101854.00
2023-03-01T14:08:18.550Z,101846.31
2023-03-01T14:11:06.286Z,101847.41
2023-03-01T14:13:57.431Z,101845.78
2023-03-01T14:16:37.157Z,101844.84
2023-03-01T14:19:32.555Z,101832.81
2023-03-01T14:22:14.340Z,101824.03
2023-03-01T14:24:48.726Z,101835.94
2023-03-01T14:27:17.312Z,101833.84
2023-03-01T14:29:54.538Z,101829.25
2023-03-01T14:32:23.049Z,101812.25
2023-03-01T14:34:51.690Z,101837.94
2023-03-01T14:37:20.987Z,101822.53
2023-03-01T14:39:49.354Z,101837.72
2023-03-01T14:42:17.418Z,101838.75
2023-03-01T14:44:48.188Z,101833.16
2023-03-01T14:47:20.993Z,101826.03
2023-03-01T14:49:53.394Z,101830.59
2023-03-01T14:52:38.367Z,101836.06
2023-03-01T14:55:14.665Z,101820.91
2023-03-01T14:57:44.902Z,101824.81
2023-03-01T15:00:19.701Z,101812.97
2023-03-01T15:02:49.918Z,101806.88
2023-03-01T15:05:23.258Z,101810.34
2023-03-01T15:07:52.261Z,101805.72
2023-03-01T15:10:34.516Z,101810.44
2023-03-01T15:13:22.518Z,101805.06
2023-03-01T15:15:52.724Z,101801.13
2023-03-01T15:18:24.917Z,101799.25
2023-03-01T15:20:53.279Z,101786.97
2023-03-01T15:23:28.080Z,101773.41
2023-03-01T15:26:05.568Z,101762.53
2023-03-01T15:28:49.809Z,101772.41
2023-03-01T15:31:24.476Z,101752.69
2023-03-01T15:33:53.276Z,101756.50
2023-03-01T15:36:39.337Z,101737.19
2023-03-01T15:39:07.348Z,101742.66
2023-03-01T15:41:48.311Z,101737.41
2023-03-01T15:44:27.912Z,101741.56
2023-03-01T15:46:58.436Z,101745.47
2023-03-01T15:49:54.428Z,101734.88
2023-03-01T15:52:43.794Z,101733.72
2023-03-01T15:55:24.511Z,101729.16
2023-03-01T15:58:01.649Z,101729.19
2023-03-01T16:00:30.297Z,101734.34
2023-03-01T16:02:57.965Z,101733.97
2023-03-01T16:05:35.399Z,101738.72
2023-03-01T16:08:04.569Z,101728.41
2023-03-01T16:10:32.590Z,101725.31
2023-03-01T16:13:00.861Z,101731.81
2023-03-01T16:15:33.055Z,101702.53
2023-03-01T16:18:00.815Z,101727.75
2023-03-01T16:20:31.464Z,101738.28
2023-03-01T16:23:04.831Z,101733.25
2023-03-01T16:25:33.460Z,101735.75
2023-03-01T16:28:05.110Z,101728.72
2023-03-01T16:30:32.933Z,101726.44
2023-03-01T16:33:00.363Z,101725.81
2023-03-01T16:35:28.478Z,101723.16
2023-03-01T16:37:56.087Z,101730.59
2023-03-01T16:40:27.881Z,101719.47
2023-03-01T16:43:00.524Z,101741.03
2023-03-01T16:45:34.628Z,101741.16
2023-03-01T16:48:03.803Z,101725.09
2023-03-01T16:50:31.438Z,101723.31
2023-03-01T16:52:58.944Z,101719.75
2023-03-01T16:55:26.291Z,101722.47
2023-03-01T16:57:53.782Z,101729.22
2023-03-01T17:00:21.945Z,101724.47
2023-03-01T17:02:49.953Z,101722.75
2023-03-01T17:05:18.588Z,101724.47
2023-03-01T17:07:46.133Z,101720.47
2023-03-01T17:10:13.599Z,101731.59
2023-03-01T17:12:41.081Z,101708.44
2023-03-01T17:15:08.775Z,101719.59
2023-03-01T17:17:36.198Z,101721.34
2023-03-01T17:20:04.956Z,101729.16
2023-03-01T17:22:32.425Z,101725.94
2023-03-01T17:24:59.716Z,101723.66
2023-03-01T17:27:27.102Z,101732.44
2023-03-01T17:29:54.642Z,101731.06
2023-03-01T17:32:22.358Z,101720.31
2023-03-01T17:34:49.988Z,101723.47
2023-03-01T17:37:17.603Z,101726.13
2023-03-01T17:39:45.100Z,101723.09
2023-03-01T17:42:12.604Z,101725.00
2023-03-01T17:44:41.071Z,101727.38
2023-03-01T17:47:10.885Z,101724.59
2023-03-01T17:49:38.333Z,101732.56
2023-03-01T17:52:05.888Z,101737.50
2023-03-01T17:54:33.626Z,101745.63
2023-03-01T17:57:01.412Z,101744.88
2023-03-01T17:59:33.647Z,101742.63
2023-03-01T18:02:01.849Z,101745.44
2023-03-01T18:04:30.189Z,101747.91
2023-03-01T18:06:58.674Z,101742.63
2023-03-01T18:09:27.666Z,101749.31
2023-03-01T18:11:55.184Z,101748.50
2023-03-01T18:14:22.510Z,101759.47
2023-03-01T18:16:50.265Z,101759.47
2023-03-01T18:19:17.610Z,101758.59
2023-03-01T18:21:44.948Z,101762.88
2023-03-01T18:24:12.292Z,101762.88
2023-03-01T18:26:40.345Z,101773.94
2023-03-01T18:29:08.395Z,101777.16
2023-03-01T18:31:36.081Z,101778.16
2023-03-01T18:34:03.577Z,101779.81
2023-03-01T18:36:32.862Z,101779.72
2023-03-01T18:39:07.110Z,101779.22
2023-03-01T18:41:36.709Z,101770.63
2023-03-01T18:44:05.639Z,101768.94
2023-03-01T18:46:36.243Z,101769.41
2023-03-01T18:49:06.330Z,101769.41
2023-03-01T18:51:35.677Z,101771.38
2023-03-01T18:54:03.313Z,101770.38
2023-03-01T18:56:31.629Z,101767.59
2023-03-01T18:59:04.114Z,101774.69
2023-03-01T19:01:36.701Z,101770.03
2023-03-01T19:04:05.438Z,101766.44
2023-03-01T19:06:35.497Z,101768.47
2023-03-01T19:09:03.684Z,101765.63
2023-03-01T19:11:33.692Z,101771.38
2023-03-01T19:14:02.584Z,101764.47
2023-03-01T19:16:32.439Z,101763.91
2023-03-01T19:19:01.884Z,101765.69
2023-03-01T19:21:32.276Z,101757.78
2023-03-01T19:24:02.421Z,101761.75
2023-03-01T19:26:31.358Z,101766.34
2023-03-01T19:28:59.570Z,101758.22
2023-03-01T19:31:29.756Z,101752.22
2023-03-01T19:34:11.436Z,101754.13
2023-03-01T19:36:42.919Z,101740.09
2023-03-01T19:39:13.735Z,101752.97
2023-03-01T19:41:42.450Z,101746.22
2023-03-01T19:44:10.197Z,101750.84
2023-03-01T19:46:38.064Z,101751.19
2023-03-01T19:49:05.813Z,101754.00
2023-03-01T19:51:36.246Z,101750.03
2023-03-01T19:54:06.239Z,101754.59
2023-03-01T19:56:34.826Z,101754.66
2023-03-01T19:59:04.607Z,101750.22
2023-03-01T20:01:34.772Z,101763.84
2023-03-01T20:04:04.087Z,101759.91
2023-03-01T20:06:32.136Z,101761.13
2023-03-01T20:09:08.973Z,101766.78
2023-03-01T20:11:43.485Z,101765.31
2023-03-01T20:14:12.393Z,101770.44
2023-03-01T20:16:40.278Z,101776.72
2023-03-01T20:19:08.313Z,101771.75
2023-03-01T20:21:36.092Z,101771.81
2023-03-01T20:24:03.541Z,101781.06
2023-03-01T20:26:32.840Z,101789.06
2023-03-01T20:29:00.554Z,101786.47
2023-03-01T20:31:29.927Z,101795.03
2023-03-01T20:33:58.888Z,101785.50
2023-03-01T20:36:27.605Z,101787.06
2023-03-01T20:38:55.254Z,101794.28
2023-03-01T20:41:26.254Z,101784.63
2023-03-01T20:43:56.451Z,101794.69
2023-03-01T20:46:25.840Z,101794.59
2023-03-01T20:48:54.339Z,101806.13
2023-03-01T20:51:22.163Z,101802.13
2023-03-01T20:53:49.880Z,101809.38
2023-03-01T20:56:19.263Z,101800.00
2023-03-01T20:59:08.274Z,101796.34
2023-03-01T21:01:37.996Z,101801.50
2023-03-01T21:04:06.047Z,101795.75
2023-03-01T21:06:34.080Z,101785.63
2023-03-01T21:09:01.911Z,101791.53
2023-03-01T21:11:29.449Z,101793.78
2023-03-01T21:13:57.086Z,101799.31
2023-03-01T21:16:24.738Z,101791.16
2023-03-01T21:18:52.509Z,101797.38
2023-03-01T21:21:22.732Z,101792.72
2023-03-01T21:23:50.512Z,101796.53
2023-03-01T21:26:20.696Z,101793.88
2023-03-01T21:28:51.000Z,101790.94
2023-03-01T21:31:22.399Z,101789.50
2023-03-01T21:33:52.998Z,101802.44
2023-03-01T21:36:22.494Z,101802.22
2023-03-01T21:38:52.626Z,101801.97
2023-03-01T21:41:29.231Z,101805.44
2023-03-01T21:44:00.519Z,101804.25
2023-03-01T21:46:31.013Z,101804.09
2023-03-01T21:48:59.581Z,101810.31
2023-03-01T21:51:27.869Z,101801.59
2023-03-01T21:53:56.293Z,101796.03
2023-03-01T21:56:26.477Z,101795.69
2023-03-01T21:58:54.479Z,101791.25
2023-03-01T22:01:25.857Z,101800.72
2023-03-01T22:03:54.229Z,101802.81
2023-03-01T22:06:31.156Z,101794.00
2023-03-01T22:09:06.090Z,101791.91
2023-03-01T22:11:39.654Z,101786.25
2023-03-01T22:14:08.275Z,101792.50
2023-03-01T22:16:37.545Z,101782.63
2023-03-01T22:19:08.917Z,101783.59
2023-03-01T22:21:40.657Z,101782.06
2023-03-01T22:24:08.585Z,101781.56
2023-03-01T22:26:41.931Z,101784.25
2023-03-01T22:29:16.026Z,101786.03
2023-03-01T22:31:43.994Z,101789.34
2023-03-01T22:34:12.152Z,101782.63
2023-03-01T22:36:39.711Z,101788.41
2023-03-01T22:39:06.985Z,101793.25
2023-03-01T22:41:44.373Z,101794.13
2023-03-01T22:44:17.905Z,101793.81
2023-03-01T22:46:45.961Z,101792.84
2023-03-01T22:49:16.673Z,101787.59
2023-03-01T22:51:44.843Z,101792.31
2023-03-01T22:54:12.298Z,101790.22
2023-03-01T22:56:40.175Z,101791.75
2023-03-01T22:59:11.245Z,101788.38
2023-03-01T23:01:40.742Z,101793.28
2023-03-01T23:04:08.536Z,101783.44
2023-03-01T23:06:50.233Z,101786.13
2023-03-01T23:09:19.574Z,101779.81
2023-03-01T23:11:47.164Z,101779.50
2023-03-01T23:14:15.795Z,101778.53
2023-03-01T23:16:43.275Z,101774.97
2023-03-01T23:19:10.928Z,101781.25
2023-03-01T23:21:38.501Z,101769.38
2023-03-01T23:24:06.356Z,101769.09
2023-03-01T23:26:34.052Z,101767.16
2023-03-01T23:29:01.748Z,101760.63
2023-03-01T23:31:30.258Z,101768.03
2023-03-01T23:33:58.027Z,101762.00
2023-03-01T23:36:28.646Z,101765.63
2023-03-01T23:39:01.368Z,101762.56
2023-03-01T23:41:31.007Z,101759.72
2023-03-01T23:44:00.704Z,101764.47
2023-03-01T23:46:31.212Z,101769.19
2023-03-01T23:48:59.949Z,101768.88
2023-03-01T23:51:27.437Z,101758.38
2023-03-01T23:54:00.035Z,101759.28
2023-03-01T23:56:36.501Z,101761.63
2023-03-01T23:59:09.256Z,101762.66
